createdAt,value
2018-09-03T00:01:01.295Z,5.05
2018-09-03T00:03:29.371Z,7.83
2018-09-03T00:05:57.444Z,4.75
2018-09-03T00:08:25.750Z,6.22
2018-09-03T00:10:53.819Z,4.92
2018-09-03T00:13:21.928Z,5.60
2018-09-03T00:15:50.043Z,5.17
2018-09-03T00:18:18.100Z,6.00
2018-09-03T00:20:46.180Z,5.47
2018-09-03T00:23:14.223Z,5.60
2018-09-03T00:25:42.351Z,5.22
2018-09-03T00:28:10.424Z,4.60
2018-09-03T00:30:38.505Z,5.90
2018-09-03T00:33:11.995Z,4.15
2018-09-03T00:35:45.407Z,5.00
2018-09-03T00:38:18.791Z,5.30
2018-09-03T00:40:52.135Z,4.75
2018-09-03T00:43:25.530Z,3.90
2018-09-03T00:45:59.025Z,4.33
2018-09-03T00:48:27.092Z,4.03
2018-09-03T00:50:55.170Z,3.58
2018-09-03T00:53:23.238Z,4.08
2018-09-03T00:55:51.297Z,5.28
2018-09-03T00:58:19.384Z,5.35
2018-09-03T01:00:47.451Z,6.05
2018-09-03T01:03:15.515Z,5.67
2018-09-03T01:05:43.565Z,3.70
2018-09-03T01:08:11.607Z,5.22
2018-09-03T01:10:39.691Z,4.00
2018-09-03T01:13:07.734Z,4.67
2018-09-03T01:15:35.774Z,4.17
2018-09-03T01:18:04.390Z,4.45
2018-09-03T01:20:32.864Z,4.05
2018-09-03T01:23:00.956Z,4.28
2018-09-03T01:25:29.057Z,4.10
2018-09-03T01:27:57.121Z,3.45
2018-09-03T01:37:12.419Z,5.33
2018-09-03T01:39:40.480Z,5.83
2018-09-03T01:42:08.571Z,3.90
2018-09-03T01:44:36.643Z,4.33
2018-09-03T01:47:04.744Z,5.53
2018-09-03T01:49:32.820Z,4.30
2018-09-03T01:52:00.931Z,4.25
2018-09-03T01:54:29.004Z,5.00
2018-09-03T01:56:57.085Z,4.25
2018-09-03T01:59:25.239Z,4.25
2018-09-03T02:01:53.402Z,3.85
2018-09-03T02:04:21.562Z,4.42
2018-09-03T02:06:49.721Z,3.65
2018-09-03T02:09:17.820Z,3.75
2018-09-03T02:11:46.013Z,4.33
2018-09-03T02:14:14.104Z,3.70
2018-09-03T02:16:42.176Z,4.65
2018-09-03T02:19:10.259Z,4.42
2018-09-03T02:21:38.331Z,3.80
2018-09-03T02:24:06.414Z,3.20
2018-09-03T02:26:34.492Z,4.10
2018-09-03T02:29:02.555Z,3.35
2018-09-03T02:31:30.611Z,4.05
2018-09-03T02:33:58.688Z,3.70
2018-09-03T02:36:26.753Z,4.37
2018-09-03T02:38:54.846Z,5.05
2018-09-03T02:41:22.939Z,3.65
2018-09-03T02:43:51.072Z,3.77
2018-09-03T02:46:19.131Z,4.53
2018-09-03T02:48:47.171Z,3.80
2018-09-03T02:51:15.231Z,3.50
2018-09-03T02:53:43.309Z,4.40
2018-09-03T02:56:11.365Z,3.65
2018-09-03T02:58:39.449Z,4.47
2018-09-03T03:01:07.489Z,4.10
2018-09-03T03:03:35.568Z,4.20
2018-09-03T03:06:03.609Z,4.50
2018-09-03T03:08:31.681Z,4.20
2018-09-03T03:10:59.736Z,4.37
2018-09-03T03:13:27.809Z,4.47
2018-09-03T03:15:55.857Z,3.58
2018-09-03T03:18:23.983Z,4.15
2018-09-03T03:20:52.015Z,3.83
2018-09-03T03:23:20.094Z,4.55
2018-09-03T03:25:48.160Z,4.58
2018-09-03T03:28:16.240Z,4.53
2018-09-03T03:30:44.270Z,4.33
2018-09-03T03:33:12.328Z,5.20
2018-09-03T03:35:40.411Z,4.28
2018-09-03T03:38:08.473Z,5.35
2018-09-03T03:40:36.527Z,4.20
2018-09-03T03:43:04.599Z,4.92
2018-09-03T03:45:32.677Z,4.55
2018-09-03T03:48:00.750Z,5.30
2018-09-03T03:50:28.811Z,3.90
2018-09-03T03:52:56.858Z,6.92
2018-09-03T03:55:24.936Z,4.75
2018-09-03T03:57:53.013Z,5.10
2018-09-03T04:00:21.072Z,4.70
2018-09-03T04:02:49.132Z,5.15
2018-09-03T04:05:17.203Z,5.35
2018-09-03T04:07:45.248Z,4.60
2018-09-03T04:10:13.300Z,5.22
2018-09-03T04:12:45.526Z,4.22
2018-09-03T04:15:13.560Z,4.62
2018-09-03T04:17:48.044Z,6.40
2018-09-03T04:20:16.109Z,5.30
2018-09-03T04:22:44.142Z,6.50
2018-09-03T04:25:12.219Z,5.08
2018-09-03T04:27:40.264Z,4.90
2018-09-03T04:30:08.337Z,5.45
2018-09-03T04:32:36.408Z,4.37
2018-09-03T04:35:04.519Z,4.85
2018-09-03T04:37:32.586Z,7.10
2018-09-03T04:40:00.678Z,5.25
2018-09-03T04:42:28.745Z,5.20
2018-09-03T04:44:56.829Z,5.28
2018-09-03T04:47:24.867Z,5.40
2018-09-03T04:49:52.925Z,5.80
2018-09-03T04:52:20.986Z,5.03
2018-09-03T04:54:49.073Z,5.40
2018-09-03T04:57:17.109Z,5.08
2018-09-03T04:59:45.186Z,5.30
2018-09-03T05:02:13.272Z,5.30
2018-09-03T05:04:41.388Z,5.25
2018-09-03T05:07:09.442Z,5.95
2018-09-03T05:09:37.509Z,6.83
2018-09-03T05:12:06.103Z,7.33
2018-09-03T05:14:34.194Z,5.40
2018-09-03T05:17:02.262Z,7.17
2018-09-03T05:19:30.336Z,7.45
2018-09-03T05:21:58.416Z,6.70
2018-09-03T05:24:26.516Z,6.65
2018-09-03T05:26:54.608Z,7.12
2018-09-03T05:29:22.785Z,7.20
2018-09-03T05:31:52.054Z,6.30
2018-09-03T05:34:20.243Z,6.08
2018-09-03T05:36:48.384Z,5.70
2018-09-03T05:39:16.482Z,9.75
2018-09-03T05:41:44.573Z,6.78
2018-09-03T05:44:12.662Z,6.20
2018-09-03T05:46:40.992Z,8.20
2018-09-03T05:49:09.238Z,9.33
2018-09-03T05:51:37.407Z,6.85
2018-09-03T05:54:05.563Z,6.70
2018-09-03T05:56:34.280Z,7.83
2018-09-03T05:59:06.044Z,7.15
2018-09-03T06:01:34.377Z,7.37
2018-09-03T06:04:02.826Z,6.67
2018-09-03T06:06:30.903Z,7.55
2018-09-03T06:09:00.031Z,6.72
2018-09-03T06:11:28.141Z,7.50
2018-09-03T06:13:56.209Z,7.25
2018-09-03T06:16:24.803Z,7.00
2018-09-03T06:18:52.916Z,7.80
2018-09-03T06:21:21.074Z,7.53
2018-09-03T06:23:49.237Z,7.08
2018-09-03T06:26:17.387Z,8.00
2018-09-03T06:28:45.438Z,7.00
2018-09-03T06:31:13.514Z,6.35
2018-09-03T06:33:41.593Z,7.65
2018-09-03T06:36:09.690Z,7.60
2018-09-03T06:38:37.848Z,13.75
2018-09-03T06:41:06.153Z,8.30
2018-09-03T06:43:34.265Z,7.85
2018-09-03T06:46:02.358Z,8.18
2018-09-03T06:48:30.534Z,7.65
2018-09-03T06:50:59.658Z,7.72
2018-09-03T06:53:28.970Z,7.70
2018-09-03T06:58:33.132Z,6.87
2018-09-03T07:01:01.217Z,7.47
2018-09-03T07:03:29.550Z,10.88
2018-09-03T07:05:57.680Z,7.90
2018-09-03T07:08:25.896Z,8.18
2018-09-03T07:10:53.979Z,7.85
2018-09-03T07:13:22.073Z,8.88
2018-09-03T07:15:54.550Z,9.45
2018-09-03T07:18:26.384Z,9.38
2018-09-03T07:20:54.650Z,8.05
2018-09-03T07:23:25.227Z,8.25
2018-09-03T07:25:56.302Z,8.10
2018-09-03T07:28:26.981Z,8.38
2018-09-03T07:30:58.202Z,7.58
2018-09-03T07:33:29.471Z,9.18
2018-09-03T07:36:04.890Z,8.50
2018-09-03T07:38:33.687Z,8.08
2018-09-03T07:41:02.456Z,8.98
2018-09-03T07:43:32.159Z,9.10
2018-09-03T07:46:08.772Z,8.35
2018-09-03T07:48:41.935Z,8.55
2018-09-03T07:51:14.734Z,9.35
2018-09-03T07:53:43.214Z,8.80
2018-09-03T07:56:12.209Z,8.50
2018-09-03T07:58:40.457Z,8.20
2018-09-03T08:01:15.818Z,7.95
2018-09-03T08:03:45.576Z,8.53
2018-09-03T08:06:13.686Z,9.40
2018-09-03T08:08:41.800Z,8.28
2018-09-03T08:11:09.934Z,9.43
2018-09-03T08:13:40.296Z,9.58
2018-09-03T08:16:09.045Z,10.55
2018-09-03T08:18:37.313Z,10.93
2018-09-03T08:21:12.096Z,8.78
2018-09-03T08:23:40.171Z,10.88
2018-09-03T08:26:08.320Z,8.43
2018-09-03T08:28:36.483Z,9.93
2018-09-03T08:31:04.842Z,8.95
2018-09-03T08:33:33.128Z,8.88
2018-09-03T08:36:01.294Z,9.28
2018-09-03T08:38:31.295Z,8.35
2018-09-03T08:41:01.111Z,8.83
2018-09-03T08:43:31.456Z,9.40
2018-09-03T08:46:22.175Z,8.83
2018-09-03T08:48:50.915Z,10.55
2018-09-03T08:51:19.302Z,9.23
2018-09-03T08:53:49.888Z,10.35
2018-09-03T08:56:23.579Z,10.50
2018-09-03T09:00:06.762Z,10.82
2018-09-03T09:02:36.011Z,9.93
2018-09-03T09:05:08.192Z,11.97
2018-09-03T09:07:39.906Z,11.43
2018-09-03T09:10:10.338Z,10.98
2018-09-03T09:12:43.194Z,10.40
2018-09-03T09:15:18.227Z,11.60
2018-09-03T09:17:46.842Z,9.33
2018-09-03T09:20:16.886Z,11.70
2018-09-03T09:22:51.009Z,11.55
2018-09-03T09:25:21.613Z,10.23
2018-09-03T09:27:51.617Z,10.13
2018-09-03T09:30:22.977Z,11.20
2018-09-03T09:32:53.398Z,12.65
2018-09-03T09:35:22.378Z,12.60
2018-09-03T09:37:52.782Z,12.28
2018-09-03T09:43:08.168Z,11.25
2018-09-03T09:45:40.990Z,12.53
2018-09-03T09:48:14.604Z,12.90
2018-09-03T09:50:44.800Z,14.98
2018-09-03T09:53:14.216Z,13.90
2018-09-03T09:55:44.791Z,13.90
2018-09-03T09:58:14.347Z,12.15
2018-09-03T10:00:49.949Z,13.98
2018-09-03T10:03:23.027Z,14.87
2018-09-03T10:08:42.304Z,15.20
2018-09-03T10:11:11.430Z,12.75
2018-09-03T10:13:42.138Z,14.47
2018-09-03T10:16:11.604Z,16.00
2018-09-03T10:18:42.473Z,15.98
2018-09-03T10:21:12.118Z,15.50
2018-09-03T10:23:42.784Z,14.35
2018-09-03T10:26:13.673Z,13.98
2018-09-03T10:28:42.516Z,13.32
2018-09-03T10:31:13.353Z,14.18
2018-09-03T10:33:42.348Z,17.75
2018-09-03T10:36:13.477Z,17.92
2018-09-03T10:38:44.392Z,16.55
2018-09-03T10:41:13.786Z,15.53
2018-09-03T10:46:27.797Z,16.67
2018-09-03T10:48:59.370Z,17.42
2018-09-03T10:51:29.642Z,17.95
2018-09-03T10:53:58.911Z,15.83
2018-09-03T10:56:28.475Z,17.52
2018-09-03T10:58:59.395Z,17.55
2018-09-03T11:01:30.397Z,18.82
2018-09-03T11:04:00.216Z,17.45
2018-09-03T11:06:29.149Z,19.17
2018-09-03T11:08:57.947Z,17.10
2018-09-03T11:11:27.018Z,17.77
2018-09-03T11:13:56.025Z,18.17
2018-09-03T11:16:25.225Z,18.75
2018-09-03T11:18:54.352Z,19.52
2018-09-03T11:21:24.094Z,21.17
2018-09-03T11:23:53.206Z,19.85
2018-09-03T11:26:22.823Z,22.48
2018-09-03T11:28:52.833Z,20.00
2018-09-03T11:31:22.145Z,19.73
2018-09-03T11:33:51.708Z,20.70
2018-09-03T11:36:22.561Z,22.48
2018-09-03T11:38:52.260Z,21.68
2018-09-03T11:41:23.495Z,23.38
2018-09-03T11:43:51.758Z,20.62
2018-09-03T11:46:19.863Z,21.95
2018-09-03T11:48:48.095Z,22.80
2018-09-03T11:51:18.374Z,20.20
2018-09-03T11:53:48.432Z,22.10
2018-09-03T11:56:19.887Z,22.00
2018-09-03T11:58:48.431Z,21.52
2018-09-03T12:01:16.490Z,22.00
2018-09-03T12:03:44.591Z,24.55
2018-09-03T12:06:12.704Z,22.45
2018-09-03T12:08:40.833Z,22.40
2018-09-03T12:11:10.716Z,18.92
2018-09-03T12:13:39.646Z,22.48
2018-09-03T12:16:13.773Z,21.00
2018-09-03T12:18:43.863Z,23.40
2018-09-03T12:21:15.782Z,23.40
2018-09-03T12:23:45.582Z,23.67
2018-09-03T12:26:14.862Z,24.07
2018-09-03T12:28:44.245Z,22.40
2018-09-03T12:31:12.428Z,21.75
2018-09-03T12:33:40.553Z,19.27
2018-09-03T12:36:08.674Z,23.00
2018-09-03T12:38:36.763Z,23.42
2018-09-03T12:41:05.632Z,22.85
2018-09-03T12:43:33.707Z,22.98
2018-09-03T12:46:06.061Z,23.42
2018-09-03T12:48:34.186Z,24.30
2018-09-03T12:51:03.199Z,24.27
2018-09-03T12:53:31.684Z,25.50
2018-09-03T12:55:59.860Z,24.95
2018-09-03T12:58:27.971Z,25.62
2018-09-03T13:00:56.068Z,24.92
2018-09-03T13:03:24.208Z,25.60
2018-09-03T13:05:52.392Z,24.72
2018-09-03T13:08:20.533Z,24.80
2018-09-03T13:10:49.011Z,24.35
2018-09-03T13:13:17.329Z,23.07
2018-09-03T13:15:45.436Z,26.05
2018-09-03T13:18:13.610Z,26.33
2018-09-03T13:20:41.701Z,22.05
2018-09-03T13:23:10.452Z,25.48
2018-09-03T13:25:39.598Z,26.12
2018-09-03T13:28:07.868Z,23.85
2018-09-03T13:30:40.368Z,23.60
2018-09-03T13:36:08.457Z,24.23
2018-09-03T13:38:37.012Z,25.88
2018-09-03T13:43:50.929Z,23.67
2018-09-03T13:46:34.381Z,24.92
2018-09-03T13:49:03.369Z,24.20
2018-09-03T13:51:31.630Z,25.00
2018-09-03T13:54:07.759Z,25.55
2018-09-03T13:56:38.212Z,25.52
2018-09-03T13:59:06.324Z,26.05
2018-09-03T14:01:34.869Z,22.13
2018-09-03T14:04:05.454Z,26.82
2018-09-03T14:06:36.816Z,27.65
2018-09-03T14:09:19.781Z,24.10
2018-09-03T14:11:48.392Z,25.75
2018-09-03T14:14:19.033Z,23.60
2018-09-03T14:16:47.307Z,22.30
2018-09-03T14:19:16.061Z,22.40
2018-09-03T14:21:44.899Z,23.92
2018-09-03T14:24:13.333Z,25.62
2018-09-03T14:26:44.336Z,24.77
2018-09-03T14:29:13.844Z,23.05
2018-09-03T14:31:42.001Z,24.52
2018-09-03T14:34:32.298Z,23.83
2018-09-03T14:37:00.521Z,24.55
2018-09-03T14:39:28.657Z,22.77
2018-09-03T14:41:56.993Z,24.50
2018-09-03T14:44:25.113Z,22.00
2018-09-03T14:46:55.592Z,22.62
2018-09-03T14:49:24.425Z,23.45
2018-09-03T14:51:54.322Z,23.60
2018-09-03T14:54:22.465Z,23.98
2018-09-03T14:56:50.591Z,20.75
2018-09-03T14:59:18.680Z,21.25
2018-09-03T15:01:46.922Z,22.37
2018-09-03T15:04:15.092Z,22.80
2018-09-03T15:06:43.127Z,22.65
2018-09-03T15:09:11.943Z,20.50
2018-09-03T15:11:40.289Z,19.10
2018-09-03T15:14:08.398Z,18.15
2018-09-03T15:16:36.536Z,19.48
2018-09-03T15:19:05.611Z,20.17
2018-09-03T15:21:34.615Z,20.15
2018-09-03T15:24:03.173Z,21.25
2018-09-03T15:26:31.329Z,20.50
2018-09-03T15:28:59.434Z,21.93
2018-09-03T15:31:27.543Z,23.00
2018-09-03T15:33:55.728Z,21.70
2018-09-03T15:36:23.985Z,20.30
2018-09-03T15:38:51.971Z,21.15
2018-09-03T15:41:20.120Z,19.55
2018-09-03T15:43:48.199Z,22.48
2018-09-03T15:46:16.310Z,20.90
2018-09-03T15:48:44.533Z,20.20
2018-09-03T15:51:12.541Z,24.15
2018-09-03T15:53:40.714Z,21.57
2018-09-03T15:56:08.811Z,18.70
2018-09-03T15:58:36.905Z,20.10
2018-09-03T16:01:04.972Z,21.85
2018-09-03T16:03:33.085Z,19.60
2018-09-03T16:06:01.207Z,22.45
2018-09-03T16:08:29.288Z,21.40
2018-09-03T16:10:57.505Z,20.80
2018-09-03T16:13:25.631Z,20.35
2018-09-03T16:15:53.774Z,21.12
2018-09-03T16:18:21.978Z,22.17
2018-09-03T16:20:50.187Z,23.27
2018-09-03T16:23:18.380Z,21.80
2018-09-03T16:25:46.496Z,23.45
2018-09-03T16:28:14.722Z,21.80
2018-09-03T16:30:42.820Z,22.58
2018-09-03T16:33:11.125Z,21.30
2018-09-03T16:35:39.198Z,21.42
2018-09-03T16:38:07.330Z,23.35
2018-09-03T16:40:35.829Z,21.42
2018-09-03T16:43:03.957Z,19.55
2018-09-03T16:45:32.113Z,22.60
2018-09-03T16:48:00.311Z,22.10
2018-09-03T16:50:28.389Z,21.00
2018-09-03T16:52:56.478Z,21.25
2018-09-03T16:55:24.798Z,23.38
2018-09-03T16:57:52.877Z,23.45
2018-09-03T17:00:21.085Z,23.67
2018-09-03T17:02:49.395Z,24.60
2018-09-03T17:05:17.672Z,23.22
2018-09-03T17:07:45.835Z,22.62
2018-09-03T17:10:13.974Z,25.10
2018-09-03T17:12:42.093Z,24.72
2018-09-03T17:15:10.266Z,23.75
2018-09-03T17:17:38.409Z,27.87
2018-09-03T17:20:06.908Z,24.95
2018-09-03T17:22:35.049Z,25.80
2018-09-03T17:25:03.144Z,25.90
2018-09-03T17:27:31.355Z,28.12
2018-09-03T17:29:59.616Z,25.80
2018-09-03T17:32:27.815Z,27.27
2018-09-03T17:34:56.054Z,25.02
2018-09-03T17:37:24.249Z,25.90
2018-09-03T17:39:52.570Z,29.15
2018-09-03T17:42:20.757Z,25.75
2018-09-03T17:44:48.855Z,27.40
2018-09-03T17:47:16.994Z,26.20
2018-09-03T17:49:45.218Z,26.17
2018-09-03T17:52:13.224Z,28.10
2018-09-03T17:54:41.402Z,25.00
2018-09-03T17:57:09.497Z,30.15
2018-09-03T17:59:37.587Z,25.80
2018-09-03T18:02:06.828Z,26.30
2018-09-03T18:04:34.959Z,28.12
2018-09-03T18:07:03.817Z,28.92
2018-09-03T18:09:32.023Z,29.75
2018-09-03T18:12:00.135Z,32.53
2018-09-03T18:14:28.375Z,34.23
2018-09-03T18:16:56.571Z,27.60
2018-09-03T18:19:24.702Z,27.10
2018-09-03T18:21:52.951Z,25.50
2018-09-03T18:24:20.975Z,24.57
2018-09-03T18:26:49.250Z,27.42
2018-09-03T18:29:17.460Z,25.08
2018-09-03T18:31:45.565Z,27.77
2018-09-03T18:34:13.686Z,28.50
2018-09-03T18:36:41.797Z,28.73
2018-09-03T18:39:09.923Z,28.32
2018-09-03T18:41:38.068Z,30.30
2018-09-03T18:44:06.215Z,27.67
2018-09-03T18:46:34.292Z,26.27
2018-09-03T18:49:02.912Z,25.70
2018-09-03T18:51:31.135Z,26.55
2018-09-03T18:53:59.204Z,25.00
2018-09-03T18:56:27.341Z,28.00
2018-09-03T18:58:55.447Z,28.32
2018-09-03T19:01:23.584Z,25.80
2018-09-03T19:03:51.681Z,30.40
2018-09-03T19:06:19.729Z,31.62
2018-09-03T19:08:47.779Z,31.65
2018-09-03T19:11:15.933Z,30.57
2018-09-03T19:13:44.031Z,29.42
2018-09-03T19:16:12.245Z,28.45
2018-09-03T19:18:40.372Z,29.92
2018-09-03T19:21:08.424Z,31.65
2018-09-03T19:23:36.564Z,31.75
2018-09-03T19:26:05.583Z,30.30
2018-09-03T19:28:33.696Z,37.42
2018-09-03T19:31:01.783Z,36.28
2018-09-03T19:33:29.919Z,36.05
2018-09-03T19:35:57.993Z,35.90
2018-09-03T19:38:26.095Z,35.55
2018-09-03T19:40:54.197Z,38.73
2018-09-03T19:43:22.335Z,37.98
2018-09-03T19:45:50.420Z,36.03
2018-09-03T19:48:18.505Z,36.53
2018-09-03T19:50:46.628Z,35.95
2018-09-03T19:53:14.744Z,34.35
2018-09-03T19:55:42.807Z,37.25
2018-09-03T19:58:11.021Z,38.08
2018-09-03T20:00:39.212Z,34.92
2018-09-03T20:03:07.337Z,35.90
2018-09-03T20:05:35.439Z,36.00
2018-09-03T20:08:03.762Z,30.77
2018-09-03T20:10:31.864Z,32.55
2018-09-03T20:12:59.937Z,34.95
2018-09-03T20:15:29.152Z,33.83
2018-09-03T20:17:57.270Z,33.08
2018-09-03T20:20:25.696Z,38.53
2018-09-03T20:22:53.818Z,34.63
2018-09-03T20:25:21.982Z,28.77
2018-09-03T20:27:50.468Z,29.87
2018-09-03T20:30:18.577Z,32.95
2018-09-03T20:32:46.669Z,30.52
2018-09-03T20:35:14.759Z,31.12
2018-09-03T20:37:42.819Z,31.93
2018-09-03T20:40:11.002Z,33.18
2018-09-03T20:42:39.081Z,34.23
2018-09-03T20:45:07.236Z,32.10
2018-09-03T20:47:35.341Z,31.87
2018-09-03T20:50:03.437Z,35.08
2018-09-03T20:52:31.489Z,32.93
2018-09-03T20:54:59.560Z,39.73
2018-09-03T20:57:27.618Z,38.88
2018-09-03T20:59:55.679Z,38.73
2018-09-03T21:02:23.794Z,38.05
2018-09-03T21:04:51.954Z,38.33
2018-09-03T21:07:20.121Z,38.98
2018-09-03T21:09:48.256Z,36.08
2018-09-03T21:12:16.342Z,36.05
2018-09-03T21:14:44.403Z,32.28
2018-09-03T21:17:12.499Z,31.35
2018-09-03T21:19:40.586Z,30.75
2018-09-03T21:22:08.763Z,28.57
2018-09-03T21:24:36.912Z,30.57
2018-09-03T21:27:05.084Z,37.80
2018-09-03T21:29:32.423Z,52.33
2018-09-03T21:32:00.507Z,33.50
2018-09-03T21:34:28.792Z,33.18
2018-09-03T21:36:57.293Z,33.50
2018-09-03T21:39:25.396Z,39.27
2018-09-03T21:41:53.565Z,43.25
2018-09-03T21:44:21.862Z,41.55
2018-09-03T21:46:50.169Z,45.45
2018-09-03T21:49:18.320Z,40.17
2018-09-03T21:51:47.484Z,37.83
2018-09-03T21:57:06.233Z,37.83
2018-09-03T21:59:34.339Z,39.98
2018-09-03T22:02:02.519Z,38.38
2018-09-03T22:04:30.607Z,38.88
2018-09-03T22:06:58.706Z,40.98
2018-09-03T22:09:26.795Z,44.83
2018-09-03T22:11:54.948Z,48.52
2018-09-03T22:14:23.123Z,45.45
2018-09-03T22:16:51.220Z,46.53
2018-09-03T22:19:19.338Z,47.33
2018-09-03T22:21:47.437Z,51.30
2018-09-03T22:24:15.581Z,45.48
2018-09-03T22:26:43.883Z,49.42
2018-09-03T22:29:12.005Z,50.30
2018-09-03T22:31:40.118Z,61.55
2018-09-03T22:34:08.524Z,44.23
2018-09-03T22:36:36.645Z,43.98
2018-09-03T22:39:06.006Z,42.45
2018-09-03T22:41:35.308Z,42.83
2018-09-03T22:44:03.410Z,46.37
2018-09-03T22:46:31.486Z,45.90
2018-09-03T22:48:59.569Z,41.20
2018-09-03T22:51:27.664Z,47.10
2018-09-03T22:53:55.749Z,49.42
2018-09-03T22:56:23.921Z,48.68
2018-09-03T22:58:52.044Z,49.53
2018-09-03T23:01:20.302Z,48.45
2018-09-03T23:03:48.375Z,48.02
2018-09-03T23:06:16.720Z,46.60
2018-09-03T23:08:44.788Z,46.02
2018-09-03T23:11:14.321Z,44.13
2018-09-03T23:13:42.367Z,43.95
2018-09-03T23:16:10.553Z,46.15
2018-09-03T23:18:38.629Z,45.28
2018-09-03T23:21:06.683Z,43.70
2018-09-03T23:23:34.770Z,42.65
2018-09-03T23:26:02.852Z,43.55
2018-09-03T23:28:30.920Z,48.78
2018-09-03T23:30:59.019Z,44.18
2018-09-03T23:33:27.104Z,41.80
2018-09-03T23:35:55.168Z,57.17
2018-09-03T23:38:23.285Z,81.05
2018-09-03T23:40:51.355Z,50.52
2018-09-03T23:43:19.428Z,45.48
2018-09-03T23:45:47.484Z,45.60
2018-09-03T23:48:15.551Z,44.93
2018-09-03T23:50:43.642Z,48.17
2018-09-03T23:53:11.716Z,45.98
2018-09-03T23:55:39.769Z,42.75
2018-09-03T23:58:07.823Z,44.33
